Time,TemperatureF,DewpointF,PressureIn,WindDirection,WindDirectionDegrees,WindSpeedMPH,WindSpeedGustMPH,Humidity,HourlyPrecipIn,Conditions,Clouds,dailyrainin,SoftwareType,DateUTC
2013-02-16 00:00:00,41.6,40.8,30.22,West,269,0.0,0.0,97,0.00,,---,0.01,VWS V14.01,2013-02-16 08:00:00,
2013-02-16 00:05:00,41.7,40.9,30.22,West,269,0.0,0.0,97,0.00,,---,0.00,VWS V14.01,2013-02-16 08:05:00,
2013-02-16 00:10:00,41.8,41.0,30.22,West,269,0.0,0.0,97,0.00,,---,0.00,VWS V14.01,2013-02-16 08:10:00,
2013-02-16 00:15:00,41.7,40.9,30.22,West,269,0.0,0.0,97,0.00,,---,0.00,VWS V14.01,2013-02-16 08:15:00,
2013-02-16 00:20:00,41.6,40.8,30.22,West,269,0.0,0.0,97,0.00,,---,0.00,VWS V14.01,2013-02-16 08:20:00,
2013-02-16 00:25:00,41.7,40.9,30.22,West,269,0.0,2.0,97,0.00,,---,0.00,VWS V14.01,2013-02-16 08:25:00,
2013-02-16 00:30:00,41.6,40.8,30.22,West,269,0.0,0.0,97,0.00,,---,0.00,VWS V14.01,2013-02-16 08:30:00,
2013-02-16 00:35:00,41.4,40.3,30.22,West,269,0.0,0.0,96,0.00,,---,0.00,VWS V14.01,2013-02-16 08:35:00,
2013-02-16 00:40:00,41.3,40.5,30.21,West,269,0.0,1.0,97,0.00,,---,0.00,VWS V14.01,2013-02-16 08:40:00,
2013-02-16 00:45:00,41.2,40.4,30.21,West,269,0.0,0.0,97,0.00,,---,0.00,VWS V14.01,2013-02-16 08:45:00,
2013-02-16 00:50:00,41.1,40.3,30.21,West,269,0.0,0.0,97,0.00,,---,0.00,VWS V14.01,2013-02-16 08:50:00,
2013-02-16 00:55:00,41.3,40.5,30.21,West,269,0.0,0.0,97,0.00,,---,0.00,VWS V14.01,2013-02-16 08:55:00,
2013-02-16 01:00:00,41.2,40.4,30.21,West,269,0.0,0.0,97,0.00,,---,0.00,VWS V14.01,2013-02-16 09:00:00,
2013-02-16 01:05:00,41.0,41.0,30.21,West,269,0.0,0.0,100,0.00,,---,0.00,VWS V14.01,2013-02-16 09:05:00,
2013-02-16 01:10:00,40.9,40.1,30.21,West,269,0.0,0.0,97,0.00,,---,0.00,VWS V14.01,2013-02-16 09:10:00,
2013-02-16 01:15:00,41.0,40.2,30.21,West,269,0.0,0.0,97,0.00,,---,0.00,VWS V14.01,2013-02-16 09:15:00,
2013-02-16 01:20:00,41.1,40.3,30.21,West,269,0.0,0.0,97,0.00,,---,0.00,VWS V14.01,2013-02-16 09:20:00,
2013-02-16 01:25:00,41.1,40.3,30.21,West,269,0.0,0.0,97,0.00,,---,0.00,VWS V14.01,2013-02-16 09:25:00,
2013-02-16 01:30:00,41.2,40.4,30.21,West,269,0.0,0.0,97,0.00,,---,0.00,VWS V14.01,2013-02-16 09:30:00,
2013-02-16 01:36:00,41.2,40.4,30.21,West,269,0.0,0.0,97,0.00,,---,0.00,VWS V14.01,2013-02-16 09:36:00,
2013-02-16 01:41:00,41.1,40.3,30.21,West,269,0.0,0.0,97,0.00,,---,0.00,VWS V14.01,2013-02-16 09:41:00,
2013-02-16 01:46:00,41.4,40.6,30.21,West,269,0.0,0.0,97,0.00,,---,0.00,VWS V14.01,2013-02-16 09:46:00,
2013-02-16 01:51:00,41.0,40.2,30.21,West,269,0.0,0.0,97,0.00,,---,0.00,VWS V14.01,2013-02-16 09:51:00,
2013-02-16 01:56:00,40.9,40.1,30.21,West,269,0.0,0.0,97,0.00,,---,0.00,VWS V14.01,2013-02-16 09:56:00,
2013-02-16 02:01:00,40.6,39.8,30.21,West,269,0.0,0.0,97,0.00,,---,0.00,VWS V14.01,2013-02-16 10:01:00,
2013-02-16 02:06:00,40.3,39.2,30.21,West,269,0.0,0.0,96,0.00,,---,0.00,VWS V14.01,2013-02-16 10:06:00,
2013-02-16 02:11:00,40.1,39.3,30.21,West,269,0.0,1.0,97,0.00,,---,0.00,VWS V14.01,2013-02-16 10:11:00,
2013-02-16 02:16:00,39.8,38.8,30.21,West,269,3.0,3.0,96,0.00,,---,0.00,VWS V14.01,2013-02-16 10:16:00,
2013-02-16 02:21:00,40.0,39.2,30.21,West,269,2.0,4.0,97,0.00,,---,0.00,VWS V14.01,2013-02-16 10:21:00,
2013-02-16 02:26:00,40.6,40.1,30.21,ESE,116,4.0,6.0,98,0.00,,---,0.00,VWS V14.01,2013-02-16 10:26:00,
2013-02-16 02:31:00,41.3,40.8,30.21,SE,144,5.0,7.0,98,0.00,,---,0.00,VWS V14.01,2013-02-16 10:31:00,
2013-02-16 02:36:00,41.9,41.4,30.21,SSE,153,4.0,5.0,98,0.00,,---,0.00,VWS V14.01,2013-02-16 10:36:00,
2013-02-16 02:41:00,42.3,41.8,30.21,SSE,165,5.0,7.0,98,0.00,,---,0.00,VWS V14.01,2013-02-16 10:41:00,
2013-02-16 02:47:00,42.8,42.3,30.21,SSE,165,2.0,6.0,98,0.00,,---,0.00,VWS V14.01,2013-02-16 10:47:00,
2013-02-16 02:52:00,43.2,42.4,30.21,SSE,160,4.0,6.0,97,0.00,,---,0.00,VWS V14.01,2013-02-16 10:52:00,
2013-02-16 02:57:00,43.7,42.4,30.20,ESE,123,5.0,6.0,95,0.00,,---,0.00,VWS V14.01,2013-02-16 10:57:00,
2013-02-16 03:02:00,44.5,42.3,30.20,SSE,162,7.0,7.0,92,0.00,,---,0.00,VWS V14.01,2013-02-16 11:02:00,
2013-02-16 03:07:00,45.2,42.2,30.20,SSW,192,5.0,5.0,89,0.00,,---,0.00,VWS V14.01,2013-02-16 11:07:00,
2013-02-16 03:12:00,45.6,42.3,30.20,SE,138,7.0,8.0,88,0.00,,---,0.00,VWS V14.01,2013-02-16 11:12:00,
2013-02-16 03:17:00,45.9,42.3,30.20,SSE,167,5.0,5.0,87,0.00,,---,0.00,VWS V14.01,2013-02-16 11:17:00,
2013-02-16 03:22:00,46.0,42.0,30.20,SSE,154,4.0,6.0,86,0.00,,---,0.00,VWS V14.01,2013-02-16 11:22:00,
2013-02-16 03:27:00,46.1,42.2,30.20,South,170,4.0,5.0,86,0.00,,---,0.00,VWS V14.01,2013-02-16 11:27:00,
2013-02-16 03:32:00,46.4,42.1,30.20,South,178,1.0,4.0,85,0.00,,---,0.00,VWS V14.01,2013-02-16 11:32:00,
2013-02-16 03:37:00,46.6,42.3,30.20,SSE,165,5.0,9.0,85,0.00,,---,0.00,VWS V14.01,2013-02-16 11:37:00,
2013-02-16 03:42:00,46.8,42.5,30.20,SE,142,0.0,6.0,85,0.00,,---,0.00,VWS V14.01,2013-02-16 11:42:00,
2013-02-16 03:47:00,47.0,42.7,30.20,South,175,0.0,6.0,85,0.00,,---,0.00,VWS V14.01,2013-02-16 11:47:00,
2013-02-16 03:52:00,47.1,42.8,30.19,South,174,2.0,7.0,85,0.00,,---,0.00,VWS V14.01,2013-02-16 11:52:00,
2013-02-16 03:57:00,47.2,42.6,30.19,SE,138,5.0,7.0,84,0.00,,---,0.00,VWS V14.01,2013-02-16 11:57:00,
2013-02-16 04:02:00,47.4,42.8,30.20,South,173,1.0,2.0,84,0.00,,---,0.00,VWS V14.01,2013-02-16 12:02:00,
2013-02-16 04:07:00,47.4,42.8,30.20,SSE,153,2.0,4.0,84,0.00,,---,0.00,VWS V14.01,2013-02-16 12:07:00,
2013-02-16 04:12:00,47.4,43.1,30.20,SSW,193,6.0,7.0,85,0.00,,---,0.00,VWS V14.01,2013-02-16 12:12:00,
2013-02-16 04:17:00,47.4,43.1,30.20,SSE,160,0.0,2.0,85,0.00,,---,0.00,VWS V14.01,2013-02-16 12:17:00,
2013-02-16 04:22:00,47.4,43.4,30.19,ESE,119,0.0,0.0,86,0.00,,---,0.00,VWS V14.01,2013-02-16 12:22:00,
2013-02-16 04:28:00,47.3,43.3,30.20,SE,134,1.0,4.0,86,0.00,,---,0.00,VWS V14.01,2013-02-16 12:28:00,
2013-02-16 04:33:00,47.4,43.4,30.20,SSW,201,0.0,1.0,86,0.00,,---,0.00,VWS V14.01,2013-02-16 12:33:00,
2013-02-16 04:38:00,47.3,43.3,30.20,WSW,238,8.0,9.0,86,0.00,,---,0.00,VWS V14.01,2013-02-16 12:38:00,
2013-02-16 04:43:00,47.3,43.6,30.20,WSW,255,13.0,18.0,87,0.00,,---,0.00,VWS V14.01,2013-02-16 12:43:00,
2013-02-16 04:48:00,47.3,43.9,30.20,SE,131,0.0,6.0,88,0.00,,---,0.00,VWS V14.01,2013-02-16 12:48:00,
2013-02-16 04:53:00,47.2,43.8,30.20,South,173,0.0,2.0,88,0.00,,---,0.00,VWS V14.01,2013-02-16 12:53:00,
2013-02-16 04:58:00,47.2,43.8,30.20,WSW,252,5.0,5.0,88,0.00,,---,0.00,VWS V14.01,2013-02-16 12:58:00,
2013-02-16 05:03:00,47.0,43.6,30.20,SW,232,3.0,6.0,88,0.00,,---,0.00,VWS V14.01,2013-02-16 13:03:00,
2013-02-16 05:08:00,47.0,43.9,30.20,SSW,208,1.0,4.0,89,0.00,,---,0.00,VWS V14.01,2013-02-16 13:08:00,
2013-02-16 05:13:00,46.9,43.8,30.20,South,190,12.0,14.0,89,0.00,,---,0.00,VWS V14.01,2013-02-16 13:13:00,
2013-02-16 05:18:00,46.8,43.7,30.20,South,180,5.0,5.0,89,0.00,,---,0.00,VWS V14.01,2013-02-16 13:18:00,
2013-02-16 05:23:00,46.7,43.6,30.19,South,190,3.0,6.0,89,0.00,,---,0.00,VWS V14.01,2013-02-16 13:23:00,
2013-02-16 05:28:00,46.5,43.4,30.20,SSW,202,1.0,6.0,89,0.00,,---,0.00,VWS V14.01,2013-02-16 13:28:00,
2013-02-16 05:33:00,46.4,43.6,30.20,SSE,148,2.0,10.0,90,0.00,,---,0.00,VWS V14.01,2013-02-16 13:33:00,
2013-02-16 05:38:00,46.3,43.5,30.20,SW,226,3.0,4.0,90,0.00,,---,0.00,VWS V14.01,2013-02-16 13:38:00,
2013-02-16 05:43:00,46.2,43.4,30.20,NW,315,1.0,3.0,90,0.00,,---,0.00,VWS V14.01,2013-02-16 13:43:00,
2013-02-16 05:49:00,46.1,43.3,30.20,East,97,0.0,4.0,90,0.00,,---,0.00,VWS V14.01,2013-02-16 13:49:00,
2013-02-16 05:54:00,46.1,43.6,30.20,SSE,165,1.0,7.0,91,0.00,,---,0.00,VWS V14.01,2013-02-16 13:54:00,
2013-02-16 05:59:00,46.0,43.5,30.20,SSW,194,1.0,4.0,91,0.00,,---,0.00,VWS V14.01,2013-02-16 13:59:00,
2013-02-16 06:04:00,46.0,43.5,30.19,South,179,6.0,7.0,91,0.00,,---,0.00,VWS V14.01,2013-02-16 14:04:00,
2013-02-16 06:09:00,46.0,43.5,30.19,SE,140,1.0,5.0,91,0.00,,---,0.00,VWS V14.01,2013-02-16 14:09:00,
2013-02-16 06:14:00,46.0,43.5,30.20,SSW,196,1.0,2.0,91,0.00,,---,0.00,VWS V14.01,2013-02-16 14:14:00,
2013-02-16 06:19:00,45.9,43.4,30.20,West,269,2.0,6.0,91,0.00,,---,0.00,VWS V14.01,2013-02-16 14:19:00,
2013-02-16 06:24:00,45.9,43.4,30.20,NW,309,4.0,5.0,91,0.00,,---,0.00,VWS V14.01,2013-02-16 14:24:00,
2013-02-16 06:29:00,45.9,43.4,30.20,South,181,3.0,3.0,91,0.00,,---,0.00,VWS V14.01,2013-02-16 14:29:00,
2013-02-16 06:34:00,46.0,43.5,30.20,SSW,201,3.0,4.0,91,0.00,,---,0.00,VWS V14.01,2013-02-16 14:34:00,
2013-02-16 06:39:00,46.0,43.5,30.20,South,190,6.0,7.0,91,0.00,,---,0.00,VWS V14.01,2013-02-16 14:39:00,
2013-02-16 06:44:00,46.1,43.3,30.20,SSE,151,8.0,10.0,90,0.00,,---,0.00,VWS V14.01,2013-02-16 14:44:00,
2013-02-16 06:49:00,46.2,43.4,30.20,SSW,198,0.0,4.0,90,0.00,,---,0.00,VWS V14.01,2013-02-16 14:49:00,
2013-02-16 06:54:00,46.2,43.4,30.20,SSW,194,12.0,15.0,90,0.00,,---,0.00,VWS V14.01,2013-02-16 14:54:00,
2013-02-16 06:59:00,46.1,43.3,30.20,SW,219,12.0,15.0,90,0.00,,---,0.00,VWS V14.01,2013-02-16 14:59:00,
2013-02-16 07:04:00,46.1,43.3,30.20,SSW,196,6.0,10.0,90,0.00,,---,0.00,VWS V14.01,2013-02-16 15:04:00,
2013-02-16 07:10:00,46.0,43.5,30.20,South,188,8.0,13.0,91,0.00,,---,0.00,VWS V14.01,2013-02-16 15:10:00,
2013-02-16 07:15:00,45.9,43.4,30.20,SSW,200,5.0,6.0,91,0.00,,---,0.00,VWS V14.01,2013-02-16 15:15:00,
2013-02-16 07:20:00,45.9,43.4,30.20,SW,214,7.0,11.0,91,0.00,,---,0.00,VWS V14.01,2013-02-16 15:20:00,
2013-02-16 07:25:00,45.8,43.3,30.20,South,186,6.0,9.0,91,0.00,,---,0.00,VWS V14.01,2013-02-16 15:25:00,
2013-02-16 07:30:00,45.8,43.3,30.20,South,186,7.0,15.0,91,0.00,,---,0.00,VWS V14.01,2013-02-16 15:30:00,
2013-02-16 07:35:00,45.8,43.3,30.21,South,185,5.0,9.0,91,0.00,,---,0.00,VWS V14.01,2013-02-16 15:35:00,
2013-02-16 07:40:00,45.8,43.3,30.21,SW,217,5.0,9.0,91,0.00,,---,0.00,VWS V14.01,2013-02-16 15:40:00,
2013-02-16 07:45:00,45.8,43.3,30.21,South,185,5.0,12.0,91,0.00,,---,0.00,VWS V14.01,2013-02-16 15:45:00,
2013-02-16 07:50:00,45.8,43.3,30.21,SSE,155,5.0,10.0,91,0.00,,---,0.00,VWS V14.01,2013-02-16 15:50:00,
2013-02-16 07:55:00,45.8,43.3,30.21,SW,221,2.0,10.0,91,0.00,,---,0.00,VWS V14.01,2013-02-16 15:55:00,
2013-02-16 08:00:00,45.8,43.3,30.21,SSW,209,1.0,5.0,91,0.00,,---,0.00,VWS V14.01,2013-02-16 16:00:00,
2013-02-16 08:05:00,45.8,43.6,30.21,South,185,5.0,6.0,92,0.00,,---,0.00,VWS V14.01,2013-02-16 16:05:00,
2013-02-16 08:10:00,45.8,43.3,30.21,SE,146,8.0,9.0,91,0.00,,---,0.00,VWS V14.01,2013-02-16 16:10:00,
2013-02-16 08:15:00,45.8,43.3,30.21,South,169,6.0,8.0,91,0.00,,---,0.00,VWS V14.01,2013-02-16 16:15:00,
2013-02-16 08:20:00,45.8,43.3,30.21,SE,138,2.0,9.0,91,0.00,,---,0.00,VWS V14.01,2013-02-16 16:20:00,
2013-02-16 08:25:00,45.9,43.4,30.21,South,179,7.0,8.0,91,0.00,,---,0.00,VWS V14.01,2013-02-16 16:25:00,
2013-02-16 08:30:00,46.0,43.5,30.21,South,191,5.0,6.0,91,0.00,,---,0.00,VWS V14.01,2013-02-16 16:30:00,
2013-02-16 08:35:00,46.1,43.3,30.21,SW,232,4.0,7.0,90,0.00,,---,0.00,VWS V14.01,2013-02-16 16:35:00,
2013-02-16 08:40:00,46.2,43.4,30.21,South,176,2.0,7.0,90,0.00,,---,0.00,VWS V14.01,2013-02-16 16:40:00,
2013-02-16 08:45:00,46.2,43.4,30.21,SSW,194,3.0,9.0,90,0.00,,---,0.00,VWS V14.01,2013-02-16 16:45:00,
2013-02-16 08:50:00,46.3,43.5,30.21,SE,142,5.0,5.0,90,0.00,,---,0.00,VWS V14.01,2013-02-16 16:50:00,
2013-02-16 08:55:00,46.4,43.3,30.21,SSW,207,3.0,9.0,89,0.00,,---,0.00,VWS V14.01,2013-02-16 16:55:00,
2013-02-16 09:00:00,46.4,43.3,30.21,WSW,247,5.0,9.0,89,0.00,,---,0.00,VWS V14.01,2013-02-16 17:00:00,
2013-02-16 09:06:00,46.5,43.4,30.21,SSW,205,5.0,10.0,89,0.00,,---,0.00,VWS V14.01,2013-02-16 17:06:00,
2013-02-16 09:11:00,46.5,43.4,30.21,SW,220,2.0,4.0,89,0.00,,---,0.00,VWS V14.01,2013-02-16 17:11:00,
2013-02-16 09:16:00,46.6,43.5,30.21,WSW,248,1.0,2.0,89,0.00,,---,0.00,VWS V14.01,2013-02-16 17:16:00,
2013-02-16 09:21:00,46.6,43.5,30.21,ESE,114,5.0,5.0,89,0.00,,---,0.00,VWS V14.01,2013-02-16 17:21:00,
2013-02-16 09:26:00,46.7,43.3,30.21,SSW,211,5.0,6.0,88,0.00,,---,0.00,VWS V14.01,2013-02-16 17:26:00,
2013-02-16 09:31:00,46.8,43.4,30.20,SSW,196,11.0,16.0,88,0.00,,---,0.00,VWS V14.01,2013-02-16 17:31:00,
2013-02-16 09:36:00,46.9,43.5,30.20,SSW,196,4.0,9.0,88,0.00,,---,0.00,VWS V14.01,2013-02-16 17:36:00,
2013-02-16 09:41:00,46.9,43.5,30.21,SW,217,12.0,12.0,88,0.00,,---,0.00,VWS V14.01,2013-02-16 17:41:00,
2013-02-16 09:46:00,46.9,43.5,30.21,SSE,156,8.0,8.0,88,0.00,,---,0.00,VWS V14.01,2013-02-16 17:46:00,
2013-02-16 09:51:00,47.0,43.6,30.20,SE,128,2.0,11.0,88,0.00,,---,0.00,VWS V14.01,2013-02-16 17:51:00,
2013-02-16 09:56:00,47.0,43.6,30.20,ESE,121,6.0,9.0,88,0.00,,---,0.00,VWS V14.01,2013-02-16 17:56:00,
2013-02-16 10:01:00,47.1,43.7,30.20,SSW,208,11.0,12.0,88,0.00,,---,0.00,VWS V14.01,2013-02-16 18:01:00,
2013-02-16 10:06:00,47.2,43.8,30.20,ESE,104,1.0,5.0,88,0.00,,---,0.00,VWS V14.01,2013-02-16 18:06:00,
2013-02-16 10:11:00,47.3,43.6,30.21,WSW,248,0.0,3.0,87,0.00,,---,0.00,VWS V14.01,2013-02-16 18:11:00,
2013-02-16 10:16:00,47.4,43.7,30.21,WNW,289,1.0,3.0,87,0.00,,---,0.00,VWS V14.01,2013-02-16 18:16:00,
2013-02-16 10:21:00,47.4,43.4,30.21,SSW,205,0.0,2.0,86,0.00,,---,0.00,VWS V14.01,2013-02-16 18:21:00,
2013-02-16 10:26:00,47.5,43.5,30.21,South,188,14.0,14.0,86,0.00,,---,0.00,VWS V14.01,2013-02-16 18:26:00,
2013-02-16 10:31:00,47.6,43.3,30.21,SSE,149,4.0,11.0,85,0.00,,---,0.00,VWS V14.01,2013-02-16 18:31:00,
2013-02-16 10:37:00,47.7,43.4,30.21,SW,217,6.0,9.0,85,0.00,,---,0.00,VWS V14.01,2013-02-16 18:37:00,
2013-02-16 10:42:00,47.9,43.6,30.21,SE,143,2.0,5.0,85,0.00,,---,0.00,VWS V14.01,2013-02-16 18:42:00,
2013-02-16 10:47:00,48.0,43.4,30.21,SW,233,2.0,2.0,84,0.00,,---,0.00,VWS V14.01,2013-02-16 18:47:00,
2013-02-16 10:52:00,47.8,43.2,30.21,WSW,253,6.0,17.0,84,0.00,,---,0.00,VWS V14.01,2013-02-16 18:52:00,
2013-02-16 10:57:00,47.5,43.2,30.20,West,260,9.0,14.0,85,0.00,,---,0.00,VWS V14.01,2013-02-16 18:57:00,
2013-02-16 11:02:00,47.6,43.0,30.20,SSW,211,13.0,14.0,84,0.00,,---,0.00,VWS V14.01,2013-02-16 19:02:00,
2013-02-16 11:07:00,47.6,43.0,30.20,SSE,163,11.0,22.0,84,0.00,,---,0.00,VWS V14.01,2013-02-16 19:07:00,
2013-02-16 11:13:00,47.5,42.9,30.20,SW,214,6.0,6.0,84,0.00,,---,0.00,VWS V14.01,2013-02-16 19:13:00,
2013-02-16 11:18:00,47.6,43.0,30.20,SSW,200,8.0,15.0,84,0.00,,---,0.00,VWS V14.01,2013-02-16 19:18:00,
2013-02-16 11:23:00,47.7,42.8,30.20,SW,219,4.0,16.0,83,0.00,,---,0.00,VWS V14.01,2013-02-16 19:23:00,
2013-02-16 11:28:00,47.7,43.1,30.20,SSW,206,4.0,6.0,84,0.00,,---,0.00,VWS V14.01,2013-02-16 19:28:00,
2013-02-16 11:33:00,47.9,43.3,30.20,SSW,211,3.0,4.0,84,0.00,,---,0.00,VWS V14.01,2013-02-16 19:33:00,
2013-02-16 11:38:00,48.3,43.4,30.19,SW,227,5.0,9.0,83,0.00,,---,0.00,VWS V14.01,2013-02-16 19:38:00,
2013-02-16 11:43:00,48.5,43.3,30.20,SSW,207,11.0,16.0,82,0.00,,---,0.00,VWS V14.01,2013-02-16 19:43:00,
2013-02-16 11:48:00,48.8,43.6,30.19,SSW,196,11.0,16.0,82,0.00,,---,0.00,VWS V14.01,2013-02-16 19:48:00,
2013-02-16 11:54:00,49.0,43.4,30.20,South,189,11.0,12.0,81,0.00,,---,0.00,VWS V14.01,2013-02-16 19:54:00,
2013-02-16 11:59:00,49.3,43.4,30.20,SSW,194,5.0,8.0,80,0.00,,---,0.00,VWS V14.01,2013-02-16 19:59:00,
2013-02-16 12:04:00,49.5,43.3,30.20,SW,221,10.0,12.0,79,0.00,,---,0.00,VWS V14.01,2013-02-16 20:04:00,
2013-02-16 12:09:00,49.3,43.1,30.19,SSE,153,13.0,13.0,79,0.00,,---,0.00,VWS V14.01,2013-02-16 20:09:00,
2013-02-16 12:14:00,49.3,43.1,30.19,SW,214,5.0,23.0,79,0.00,,---,0.00,VWS V14.01,2013-02-16 20:14:00,
2013-02-16 12:19:00,49.6,43.0,30.18,South,187,21.0,21.0,78,0.00,,---,0.00,VWS V14.01,2013-02-16 20:19:00,
2013-02-16 12:24:00,49.9,42.7,30.18,SW,219,13.0,17.0,76,0.00,,---,0.00,VWS V14.01,2013-02-16 20:24:00,
2013-02-16 12:29:00,50.0,42.4,30.18,South,178,11.0,18.0,75,0.00,,---,0.00,VWS V14.01,2013-02-16 20:29:00,
2013-02-16 12:34:00,50.0,42.0,30.18,SSE,151,10.0,16.0,74,0.00,,---,0.00,VWS V14.01,2013-02-16 20:34:00,
2013-02-16 12:39:00,49.9,41.6,30.18,SSW,206,16.0,18.0,73,0.00,,---,0.00,VWS V14.01,2013-02-16 20:39:00,
2013-02-16 12:45:00,49.9,41.6,30.18,SW,219,10.0,19.0,73,0.00,,---,0.00,VWS V14.01,2013-02-16 20:45:00,
2013-02-16 12:50:00,50.0,41.7,30.17,SSW,196,8.0,19.0,73,0.00,,---,0.00,VWS V14.01,2013-02-16 20:50:00,
2013-02-16 12:55:00,49.9,42.0,30.17,SW,225,7.0,16.0,74,0.00,,---,0.00,VWS V14.01,2013-02-16 20:55:00,
2013-02-16 13:00:00,50.3,42.3,30.17,WNW,297,8.0,20.0,74,0.00,,---,0.00,VWS V14.01,2013-02-16 21:00:00,
2013-02-16 13:05:00,50.5,41.8,30.17,SSW,213,11.0,18.0,72,0.00,,---,0.00,VWS V14.01,2013-02-16 21:05:00,
2013-02-16 13:10:00,51.1,42.0,30.16,South,169,16.0,16.0,71,0.00,,---,0.00,VWS V14.01,2013-02-16 21:10:00,
2013-02-16 13:15:00,51.2,41.4,30.16,SW,224,9.0,18.0,69,0.00,,---,0.00,VWS V14.01,2013-02-16 21:15:00,
2013-02-16 13:20:00,51.3,41.5,30.16,SE,136,6.0,16.0,69,0.00,,---,0.00,VWS V14.01,2013-02-16 21:20:00,
2013-02-16 13:25:00,51.2,41.0,30.16,SSW,205,17.0,23.0,68,0.00,,---,0.00,VWS V14.01,2013-02-16 21:25:00,
2013-02-16 13:30:00,51.2,41.4,30.16,South,187,15.0,15.0,69,0.00,,---,0.00,VWS V14.01,2013-02-16 21:30:00,
2013-02-16 13:35:00,51.3,41.1,30.16,SSW,209,21.0,23.0,68,0.00,,---,0.00,VWS V14.01,2013-02-16 21:35:00,
2013-02-16 13:40:00,51.2,41.0,30.16,SSW,213,16.0,19.0,68,0.00,,---,0.00,VWS V14.01,2013-02-16 21:40:00,
2013-02-16 13:45:00,51.3,41.5,30.16,South,186,12.0,12.0,69,0.00,,---,0.00,VWS V14.01,2013-02-16 21:45:00,
2013-02-16 13:50:00,51.9,41.3,30.16,SSW,213,13.0,21.0,67,0.00,,---,0.00,VWS V14.01,2013-02-16 21:50:00,
2013-02-16 13:55:00,51.9,41.3,30.16,SW,219,12.0,22.0,67,0.00,,---,0.00,VWS V14.01,2013-02-16 21:55:00,
2013-02-16 14:00:00,51.5,40.1,30.16,SSW,199,7.0,17.0,65,0.00,,---,0.00,VWS V14.01,2013-02-16 22:00:00,
2013-02-16 14:05:00,51.6,39.8,30.16,SW,229,19.0,19.0,64,0.00,,---,0.00,VWS V14.01,2013-02-16 22:05:00,
2013-02-16 14:10:00,51.2,39.8,30.15,SSW,200,8.0,19.0,65,0.00,,---,0.00,VWS V14.01,2013-02-16 22:10:00,
2013-02-16 14:15:00,51.0,39.7,30.16,SSW,208,9.0,17.0,65,0.00,,---,0.00,VWS V14.01,2013-02-16 22:15:00,
2013-02-16 14:20:00,50.4,39.9,30.16,SW,227,21.0,24.0,67,0.00,,---,0.00,VWS V14.01,2013-02-16 22:20:00,
2013-02-16 14:25:00,50.0,40.2,30.16,SSW,201,10.0,18.0,69,0.00,,---,0.00,VWS V14.01,2013-02-16 22:25:00,
2013-02-16 14:30:00,50.0,40.2,30.15,SW,230,9.0,21.0,69,0.00,,---,0.00,VWS V14.01,2013-02-16 22:30:00,
2013-02-16 14:35:00,50.1,40.7,30.15,SSW,209,9.0,14.0,70,0.00,,---,0.00,VWS V14.01,2013-02-16 22:35:00,
2013-02-16 14:40:00,49.9,40.5,30.15,SW,214,17.0,17.0,70,0.00,,---,0.00,VWS V14.01,2013-02-16 22:40:00,
2013-02-16 14:45:00,49.8,40.8,30.15,SW,223,12.0,17.0,71,0.00,,---,0.00,VWS V14.01,2013-02-16 22:45:00,
2013-02-16 14:50:00,49.7,40.7,30.15,SW,236,19.0,19.0,71,0.00,,---,0.00,VWS V14.01,2013-02-16 22:50:00,
2013-02-16 14:55:00,49.6,40.6,30.15,WSW,251,9.0,18.0,71,0.00,,---,0.00,VWS V14.01,2013-02-16 22:55:00,
2013-02-16 15:00:00,49.9,40.9,30.16,SSW,213,15.0,25.0,71,0.00,,---,0.00,VWS V14.01,2013-02-16 23:00:00,
2013-02-16 15:05:00,50.4,41.0,30.15,South,188,14.0,21.0,70,0.00,,---,0.00,VWS V14.01,2013-02-16 23:05:00,
2013-02-16 15:10:00,50.7,40.9,30.15,SW,228,14.0,18.0,69,0.00,,---,0.00,VWS V14.01,2013-02-16 23:10:00,
2013-02-16 15:15:00,50.3,40.2,30.16,South,182,6.0,22.0,68,0.00,,---,0.00,VWS V14.01,2013-02-16 23:15:00,
2013-02-16 15:20:00,49.9,40.2,30.16,South,169,8.0,10.0,69,0.00,,---,0.00,VWS V14.01,2013-02-16 23:20:00,
2013-02-16 15:25:00,49.7,40.0,30.16,SSW,200,8.0,16.0,69,0.00,,---,0.00,VWS V14.01,2013-02-16 23:25:00,
2013-02-16 15:31:00,49.5,39.8,30.16,SW,236,14.0,16.0,69,0.00,,---,0.00,VWS V14.01,2013-02-16 23:31:00,
2013-02-16 15:36:00,49.2,39.5,30.16,SW,228,13.0,13.0,69,0.00,,---,0.00,VWS V14.01,2013-02-16 23:36:00,
2013-02-16 15:41:00,49.0,39.7,30.16,WSW,250,4.0,13.0,70,0.00,,---,0.00,VWS V14.01,2013-02-16 23:41:00,
2013-02-16 15:46:00,48.9,39.9,30.16,SW,222,9.0,9.0,71,0.00,,---,0.00,VWS V14.01,2013-02-16 23:46:00,
2013-02-16 15:51:00,48.7,40.5,30.17,West,273,6.0,7.0,73,0.00,,---,0.00,VWS V14.01,2013-02-16 23:51:00,
2013-02-16 15:56:00,48.5,40.6,30.17,WSW,256,0.0,4.0,74,0.00,,---,0.00,VWS V14.01,2013-02-16 23:56:00,
2013-02-16 16:02:00,48.0,40.5,30.17,North,355,6.0,6.0,75,0.00,,---,0.00,VWS V14.01,2013-02-17 00:02:00,
2013-02-16 16:07:00,47.2,40.4,30.17,NNE,28,6.0,6.0,77,0.00,,---,0.00,VWS V14.01,2013-02-17 00:07:00,
2013-02-16 16:12:00,46.4,40.6,30.17,ENE,60,4.0,4.0,80,0.00,,---,0.00,VWS V14.01,2013-02-17 00:12:00,
2013-02-16 16:17:00,45.8,40.3,30.18,ENE,78,5.0,5.0,81,0.00,,---,0.00,VWS V14.01,2013-02-17 00:17:00,
2013-02-16 16:22:00,45.4,40.5,30.18,ENE,59,6.0,10.0,83,0.00,,---,0.00,VWS V14.01,2013-02-17 00:22:00,
2013-02-16 16:27:00,44.8,40.3,30.18,NNE,29,5.0,7.0,84,0.00,,---,0.00,VWS V14.01,2013-02-17 00:27:00,
2013-02-16 16:32:00,44.4,40.5,30.18,ENE,77,4.0,5.0,86,0.00,,---,0.00,VWS V14.01,2013-02-17 00:32:00,
2013-02-16 16:37:00,44.1,40.5,30.17,NNE,26,6.0,7.0,87,0.01,,---,0.01,VWS V14.01,2013-02-17 00:37:00,
2013-02-16 16:43:00,43.8,40.5,30.18,NNE,23,1.0,2.0,88,0.02,,---,0.02,VWS V14.01,2013-02-17 00:43:00,
2013-02-16 16:48:00,43.4,40.4,30.18,NE,44,2.0,3.0,89,0.03,,---,0.03,VWS V14.01,2013-02-17 00:48:00,
2013-02-16 16:52:00,43.2,40.5,30.19,NE,49,2.0,5.0,90,0.05,,---,0.05,VWS V14.01,2013-02-17 00:52:00,
2013-02-16 16:58:00,42.9,40.5,30.19,NE,47,5.0,6.0,91,0.06,,---,0.06,VWS V14.01,2013-02-17 00:58:00,
2013-02-16 17:03:00,42.6,40.2,30.19,SE,139,2.0,5.0,91,0.11,,---,0.11,VWS V14.01,2013-02-17 01:03:00,
2013-02-16 17:08:00,42.1,39.4,30.20,SSW,200,1.0,3.0,90,0.15,,---,0.15,VWS V14.01,2013-02-17 01:08:00,
2013-02-16 17:13:00,41.6,39.2,30.19,South,190,3.0,4.0,91,0.20,,---,0.20,VWS V14.01,2013-02-17 01:13:00,
2013-02-16 17:18:00,40.9,38.5,30.19,SE,128,5.0,6.0,91,0.27,,---,0.27,VWS V14.01,2013-02-17 01:18:00,
2013-02-16 17:23:00,40.5,38.4,30.19,SSE,167,5.0,6.0,92,0.29,,---,0.29,VWS V14.01,2013-02-17 01:23:00,
2013-02-16 17:28:00,40.3,38.4,30.19,South,170,0.0,1.0,93,0.32,,---,0.32,VWS V14.01,2013-02-17 01:28:00,
2013-02-16 17:33:00,40.6,39.0,30.20,NNW,333,1.0,1.0,94,0.34,,---,0.34,VWS V14.01,2013-02-17 01:33:00,
2013-02-16 17:38:00,40.8,39.2,30.20,SSW,198,4.0,5.0,94,0.33,,---,0.34,VWS V14.01,2013-02-17 01:38:00,
2013-02-16 17:43:00,40.6,39.0,30.20,ESE,110,4.0,9.0,94,0.33,,---,0.35,VWS V14.01,2013-02-17 01:43:00,
2013-02-16 17:48:00,40.5,38.9,30.20,ESE,118,6.0,7.0,94,0.33,,---,0.36,VWS V14.01,2013-02-17 01:48:00,
2013-02-16 17:53:00,40.6,39.0,30.20,ESE,103,4.0,4.0,94,0.31,,---,0.36,VWS V14.01,2013-02-17 01:53:00,
2013-02-16 17:58:00,40.7,39.4,30.20,ESE,109,2.0,4.0,95,0.31,,---,0.37,VWS V14.01,2013-02-17 01:58:00,
2013-02-16 18:03:00,40.8,39.5,30.20,ESE,122,4.0,5.0,95,0.27,,---,0.38,VWS V14.01,2013-02-17 02:03:00,
2013-02-16 18:09:00,40.8,39.5,30.19,ESE,110,1.0,4.0,95,0.24,,---,0.38,VWS V14.01,2013-02-17 02:09:00,
2013-02-16 18:14:00,40.8,39.5,30.19,SSE,155,2.0,2.0,95,0.17,,---,0.38,VWS V14.01,2013-02-17 02:14:00,
2013-02-16 18:19:00,40.8,39.5,30.20,SSE,157,5.0,5.0,95,0.11,,---,0.38,VWS V14.01,2013-02-17 02:19:00,
2013-02-16 18:24:00,40.8,39.5,30.20,SSE,157,2.0,4.0,95,0.09,,---,0.38,VWS V14.01,2013-02-17 02:24:00,
2013-02-16 18:29:00,40.7,39.4,30.20,SE,141,2.0,5.0,95,0.06,,---,0.38,VWS V14.01,2013-02-17 02:29:00,
2013-02-16 18:34:00,40.8,39.5,30.19,ESE,105,2.0,5.0,95,0.04,,---,0.38,VWS V14.01,2013-02-17 02:34:00,
2013-02-16 18:39:00,40.9,39.6,30.19,SE,142,2.0,5.0,95,0.04,,---,0.38,VWS V14.01,2013-02-17 02:39:00,
2013-02-16 18:44:00,40.9,39.6,30.19,SSE,154,4.0,5.0,95,0.03,,---,0.38,VWS V14.01,2013-02-17 02:44:00,
2013-02-16 18:49:00,41.0,39.7,30.20,SSE,153,2.0,4.0,95,0.02,,---,0.38,VWS V14.01,2013-02-17 02:49:00,
2013-02-16 18:54:00,41.0,39.7,30.20,SSE,153,2.0,2.0,95,0.02,,---,0.38,VWS V14.01,2013-02-17 02:54:00,
2013-02-16 18:59:00,41.2,39.9,30.20,ESE,108,2.0,4.0,95,0.01,,---,0.38,VWS V14.01,2013-02-17 02:59:00,
2013-02-16 19:04:00,41.3,40.0,30.20,SSE,167,0.0,4.0,95,0.00,,---,0.38,VWS V14.01,2013-02-17 03:04:00,
2013-02-16 19:09:00,41.3,40.0,30.20,SSE,167,2.0,2.0,95,0.00,,---,0.38,VWS V14.01,2013-02-17 03:09:00,
2013-02-16 19:14:00,41.4,40.1,30.20,SSE,166,0.0,0.0,95,0.00,,---,0.38,VWS V14.01,2013-02-17 03:14:00,
2013-02-16 19:19:00,41.4,40.1,30.20,SSE,166,0.0,1.0,95,0.00,,---,0.38,VWS V14.01,2013-02-17 03:19:00,
2013-02-16 19:24:00,41.5,40.2,30.20,ESE,102,1.0,1.0,95,0.00,,---,0.38,VWS V14.01,2013-02-17 03:24:00,
2013-02-16 19:29:00,41.5,40.2,30.20,NE,34,3.0,4.0,95,0.00,,---,0.38,VWS V14.01,2013-02-17 03:29:00,
2013-02-16 19:34:00,41.6,40.3,30.20,NE,42,4.0,4.0,95,0.00,,---,0.38,VWS V14.01,2013-02-17 03:34:00,
2013-02-16 19:39:00,41.6,40.3,30.20,NE,53,3.0,4.0,95,0.00,,---,0.38,VWS V14.01,2013-02-17 03:39:00,
2013-02-16 19:44:00,41.5,40.2,30.20,NE,47,0.0,0.0,95,0.00,,---,0.38,VWS V14.01,2013-02-17 03:44:00,
2013-02-16 19:49:00,41.5,40.5,30.20,NE,47,2.0,3.0,96,0.00,,---,0.38,VWS V14.01,2013-02-17 03:49:00,
2013-02-16 19:54:00,41.4,40.3,30.20,NE,49,2.0,2.0,96,0.00,,---,0.38,VWS V14.01,2013-02-17 03:54:00,
2013-02-16 19:59:00,41.4,40.3,30.20,NE,41,3.0,6.0,96,0.00,,---,0.38,VWS V14.01,2013-02-17 03:59:00,
2013-02-16 20:04:00,41.3,40.2,30.20,NNE,16,5.0,5.0,96,0.00,,---,0.38,VWS V14.01,2013-02-17 04:04:00,
2013-02-16 20:09:00,40.9,39.6,30.21,NE,43,3.0,6.0,95,0.00,,---,0.38,VWS V14.01,2013-02-17 04:09:00,
2013-02-16 20:14:00,40.5,39.2,30.21,NE,38,3.0,3.0,95,0.00,,---,0.38,VWS V14.01,2013-02-17 04:14:00,
2013-02-16 20:19:00,40.2,38.9,30.21,NE,38,1.0,3.0,95,0.00,,---,0.38,VWS V14.01,2013-02-17 04:19:00,
2013-02-16 20:24:00,40.0,38.7,30.22,NNE,17,1.0,1.0,95,0.00,,---,0.38,VWS V14.01,2013-02-17 04:24:00,
2013-02-16 20:29:00,39.9,38.6,30.22,NE,38,3.0,4.0,95,0.00,,---,0.38,VWS V14.01,2013-02-17 04:29:00,
2013-02-16 20:34:00,39.8,38.5,30.22,NE,40,3.0,4.0,95,0.00,,---,0.38,VWS V14.01,2013-02-17 04:34:00,
2013-02-16 20:39:00,39.7,38.4,30.22,SSE,165,5.0,5.0,95,0.00,,---,0.38,VWS V14.01,2013-02-17 04:39:00,
2013-02-16 20:44:00,39.6,38.3,30.22,ESE,111,2.0,4.0,95,0.01,,---,0.39,VWS V14.01,2013-02-17 04:44:00,
2013-02-16 20:49:00,39.6,38.6,30.22,ENE,69,4.0,4.0,96,0.01,,---,0.39,VWS V14.01,2013-02-17 04:49:00,
2013-02-16 20:54:00,39.5,38.5,30.22,ENE,58,3.0,4.0,96,0.01,,---,0.39,VWS V14.01,2013-02-17 04:54:00,
2013-02-16 20:59:00,39.4,38.1,30.22,ENE,57,3.0,3.0,95,0.02,,---,0.40,VWS V14.01,2013-02-17 04:59:00,
2013-02-16 21:00:00,39.4,38.1,30.22,ENE,57,2.0,3.0,95,0.02,,---,0.40,VWS V14.01,2013-02-17 05:00:00,
2013-02-16 21:01:00,39.4,38.1,30.22,ENE,69,3.0,3.0,95,0.02,,---,0.40,VWS V14.01,2013-02-17 05:01:00,
2013-02-16 21:06:00,39.3,38.3,30.22,East,84,2.0,3.0,96,0.02,,---,0.40,VWS V14.01,2013-02-17 05:06:00,
2013-02-16 21:11:00,39.3,38.3,30.22,East,83,1.0,2.0,96,0.02,,---,0.40,VWS V14.01,2013-02-17 05:11:00,
2013-02-16 21:16:00,39.3,38.3,30.22,ENE,76,2.0,3.0,96,0.02,,---,0.40,VWS V14.01,2013-02-17 05:16:00,
2013-02-16 21:21:00,39.3,38.3,30.22,ENE,66,5.0,5.0,96,0.02,,---,0.40,VWS V14.01,2013-02-17 05:21:00,
2013-02-16 21:26:00,39.3,38.3,30.22,ENE,68,2.0,4.0,96,0.02,,---,0.40,VWS V14.01,2013-02-17 05:26:00,
2013-02-16 21:31:00,39.4,38.4,30.22,East,86,3.0,4.0,96,0.02,,---,0.40,VWS V14.01,2013-02-17 05:31:00,
2013-02-16 21:36:00,39.4,38.4,30.22,ENE,65,2.0,4.0,96,0.02,,---,0.40,VWS V14.01,2013-02-17 05:36:00,
2013-02-16 21:41:00,39.5,38.5,30.22,ENE,78,1.0,2.0,96,0.01,,---,0.40,VWS V14.01,2013-02-17 05:41:00,
2013-02-16 21:46:00,39.6,38.6,30.22,NE,46,4.0,5.0,96,0.01,,---,0.40,VWS V14.01,2013-02-17 05:46:00,
2013-02-16 21:51:00,39.6,38.6,30.23,NE,44,4.0,6.0,96,0.01,,---,0.40,VWS V14.01,2013-02-17 05:51:00,
2013-02-16 21:56:00,39.5,38.5,30.23,NE,41,6.0,7.0,96,0.00,,---,0.40,VWS V14.01,2013-02-17 05:56:00,
2013-02-16 22:02:00,39.3,38.3,30.24,NE,49,3.0,4.0,96,0.00,,---,0.40,VWS V14.01,2013-02-17 06:02:00,
2013-02-16 22:07:00,39.2,38.2,30.24,South,186,3.0,4.0,96,0.00,,---,0.40,VWS V14.01,2013-02-17 06:07:00,
2013-02-16 22:12:00,39.2,38.2,30.24,ESE,113,4.0,4.0,96,0.00,,---,0.40,VWS V14.01,2013-02-17 06:12:00,
2013-02-16 22:17:00,39.2,38.2,30.23,SE,130,4.0,8.0,96,0.02,,---,0.42,VWS V14.01,2013-02-17 06:17:00,
2013-02-16 22:22:00,39.2,38.2,30.23,ENE,74,0.0,3.0,96,0.03,,---,0.43,VWS V14.01,2013-02-17 06:22:00,
2013-02-16 22:27:00,39.1,38.1,30.23,South,182,7.0,7.0,96,0.04,,---,0.44,VWS V14.01,2013-02-17 06:27:00,
2013-02-16 22:33:00,39.2,38.2,30.23,SSE,159,6.0,6.0,96,0.04,,---,0.44,VWS V14.01,2013-02-17 06:33:00,
2013-02-16 22:38:00,39.5,38.5,30.23,South,173,0.0,0.0,96,0.04,,---,0.44,VWS V14.01,2013-02-17 06:38:00,
2013-02-16 22:43:00,39.7,38.7,30.23,ENE,57,1.0,4.0,96,0.04,,---,0.44,VWS V14.01,2013-02-17 06:43:00,
2013-02-16 22:48:00,39.8,38.8,30.23,ENE,64,4.0,4.0,96,0.04,,---,0.44,VWS V14.01,2013-02-17 06:48:00,
2013-02-16 22:53:00,39.7,38.7,30.24,NE,56,3.0,5.0,96,0.04,,---,0.44,VWS V14.01,2013-02-17 06:53:00,
2013-02-16 22:58:00,39.7,38.7,30.24,East,86,1.0,2.0,96,0.04,,---,0.44,VWS V14.01,2013-02-17 06:58:00,
2013-02-16 23:03:00,39.7,38.7,30.24,SE,143,1.0,5.0,96,0.04,,---,0.44,VWS V14.01,2013-02-17 07:03:00,
2013-02-16 23:08:00,39.8,38.8,30.24,SSE,163,2.0,2.0,96,0.04,,---,0.44,VWS V14.01,2013-02-17 07:08:00,
2013-02-16 23:13:00,40.0,39.0,30.24,South,170,4.0,6.0,96,0.04,,---,0.44,VWS V14.01,2013-02-17 07:13:00,
2013-02-16 23:18:00,40.2,38.9,30.24,SSW,197,2.0,4.0,95,0.02,,---,0.44,VWS V14.01,2013-02-17 07:18:00,
2013-02-16 23:23:00,40.4,38.8,30.24,SSW,194,2.0,5.0,94,0.01,,---,0.44,VWS V14.01,2013-02-17 07:23:00,
2013-02-16 23:28:00,40.4,38.8,30.24,South,169,2.0,5.0,94,0.00,,---,0.44,VWS V14.01,2013-02-17 07:28:00,
2013-02-16 23:34:00,40.5,38.6,30.24,SSW,198,7.0,7.0,93,0.00,,---,0.44,VWS V14.01,2013-02-17 07:34:00,
2013-02-16 23:39:00,40.6,38.5,30.24,SSE,155,5.0,7.0,92,0.00,,---,0.44,VWS V14.01,2013-02-17 07:39:00,
2013-02-16 23:44:00,40.6,38.5,30.24,SSE,163,6.0,8.0,92,0.00,,---,0.44,VWS V14.01,2013-02-17 07:44:00,
2013-02-16 23:49:00,40.7,38.6,30.24,South,185,9.0,12.0,92,0.00,,---,0.44,VWS V14.01,2013-02-17 07:49:00,
2013-02-16 23:54:00,40.8,38.4,30.25,South,173,5.0,9.0,91,0.00,,---,0.44,VWS V14.01,2013-02-17 07:54:00,
2013-02-16 23:59:00,40.8,38.4,30.25,SSW,207,6.0,11.0,91,0.00,,---,0.44,VWS V14.01,2013-02-17 07:59:00,